Map

Track Data

SID SEASON NUMBER BASIN SUBBASIN NAME ISO_TIME NATURE LAT LON WMO_WIND WMO_PRES WMO_AGENCY TRACK_TYPE DIST2LAND LANDFALL IFLAG USA_AGENCY USA_ATCF_ID USA_LAT USA_LON USA_RECORD USA_STATUS USA_WIND USA_PRES USA_SSHS USA_R34_NE USA_R34_SE USA_R34_SW USA_R34_NW USA_R50_NE USA_R50_SE USA_R50_SW USA_R50_NW USA_R64_NE USA_R64_SE USA_R64_SW USA_R64_NW USA_POCI USA_ROCI USA_RMW USA_EYE TOKYO_LAT TOKYO_LON TOKYO_GRADE TOKYO_WIND TOKYO_PRES TOKYO_R50_DIR TOKYO_R50_LONG TOKYO_R50_SHORT TOKYO_R30_DIR TOKYO_R30_LONG TOKYO_R30_SHORT TOKYO_LAND CMA_LAT CMA_LON CMA_CAT CMA_WIND CMA_PRES HKO_LAT HKO_LON HKO_CAT HKO_WIND HKO_PRES NEWDELHI_LAT NEWDELHI_LON NEWDELHI_GRADE NEWDELHI_WIND NEWDELHI_PRES NEWDELHI_CI NEWDELHI_DP NEWDELHI_POCI REUNION_LAT REUNION_LON REUNION_TYPE REUNION_WIND REUNION_PRES REUNION_TNUM REUNION_CI REUNION_RMW REUNION_R34_NE REUNION_R34_SE REUNION_R34_SW REUNION_R34_NW REUNION_R50_NE REUNION_R50_SE REUNION_R50_SW REUNION_R50_NW REUNION_R64_NE REUNION_R64_SE REUNION_R64_SW REUNION_R64_NW BOM_LAT BOM_LON BOM_TYPE BOM_WIND BOM_PRES BOM_TNUM BOM_CI BOM_RMW BOM_R34_NE BOM_R34_SE BOM_R34_SW BOM_R34_NW BOM_R50_NE BOM_R50_SE BOM_R50_SW BOM_R50_NW BOM_R64_NE BOM_R64_SE BOM_R64_SW BOM_R64_NW BOM_ROCI BOM_POCI BOM_EYE BOM_POS_METHOD BOM_PRES_METHOD NADI_LAT NADI_LON NADI_CAT NADI_WIND NADI_PRES WELLINGTON_LAT WELLINGTON_LON WELLINGTON_WIND WELLINGTON_PRES DS824_LAT DS824_LON DS824_STAGE DS824_WIND DS824_PRES TD9636_LAT TD9636_LON TD9636_STAGE TD9636_WIND TD9636_PRES TD9635_LAT TD9635_LON TD9635_WIND TD9635_PRES TD9635_ROCI NEUMANN_LAT NEUMANN_LON NEUMANN_CLASS NEUMANN_WIND NEUMANN_PRES MLC_LAT MLC_LON MLC_CLASS MLC_WIND MLC_PRES USA_GUST BOM_GUST BOM_GUST_PER REUNION_GUST REUNION_GUST_PER USA_SEAHGT USA_SEARAD_NE USA_SEARAD_SE USA_SEARAD_SW USA_SEARAD_NW STORM_SPEED STORM_DIR
1913235N19134 1913 38 WP MM NOT_NAMED 1913-08-23 09:00:00 NR 19.0000 134.300 main 1199 1199 __________O___ -1 19.0000 134.300 2 16 16
1913235N19134 1913 38 WP MM NOT_NAMED 1913-08-23 12:00:00 NR 19.7706 134.529 main 1261 1239 __________P___ -1 19.7706 134.529 2 16 16
1913235N19134 1913 38 WP MM NOT_NAMED 1913-08-23 15:00:00 NR 20.5229 134.758 main 1242 1175 __________P___ -1 20.5229 134.758 2 15 16
1913235N19134 1913 38 WP MM NOT_NAMED 1913-08-23 18:00:00 NR 21.2387 134.983 main 1175 1110 __________P___ -1 21.2387 134.983 2 14 17
1913235N19134 1913 38 WP MM NOT_NAMED 1913-08-23 21:00:00 NR 21.9000 135.200 main 1110 1057 __________O___ -1 21.9000 135.200 2 13 17
1913235N19134 1913 38 WP MM NOT_NAMED 1913-08-24 00:00:00 NR 22.4944 135.408 main 1057 1016 __________P___ -1 22.4944 135.408 2 12 18
1913235N19134 1913 38 WP MM NOT_NAMED 1913-08-24 03:00:00 NR 23.0322 135.609 main 1016 976 __________P___ -1 23.0322 135.609 2 11 19
1913235N19134 1913 38 WP MM NOT_NAMED 1913-08-24 06:00:00 NR 23.5288 135.805 main 976 939 __________P___ -1 23.5288 135.805 2 10 20
1913235N19134 1913 38 WP MM NOT_NAMED 1913-08-24 09:00:00 NR 24.0000 136.000 main 939 912 __________O___ -1 24.0000 136.000 2 10 21
1913235N19134 1913 38 WP MM NOT_NAMED 1913-08-24 12:00:00 NR 24.4755 136.204 main 902 875 __________P___ -1 24.4755 136.204 2 10 22
1913235N19134 1913 38 WP MM NOT_NAMED 1913-08-24 15:00:00 NR 24.9299 136.408 main 875 849 __________P___ -1 24.9299 136.408 2 10 22
1913235N19134 1913 38 WP MM NOT_NAMED 1913-08-24 18:00:00 NR 25.3693 136.608 main 840 817 __________P___ -1 25.3693 136.608 2 9 22
1913235N19134 1913 38 WP MM NOT_NAMED 1913-08-24 21:00:00 NR 25.8000 136.800 main 817 789 __________O___ -1 25.8000 136.800 2 9 21
1913235N19134 1913 38 WP MM NOT_NAMED 1913-08-25 00:00:00 NR 26.2279 136.975 main 795 769 __________P___ -1 26.2279 136.975 2 9 20
1913235N19134 1913 38 WP MM NOT_NAMED 1913-08-25 03:00:00 NR 26.6497 137.144 main 769 728 __________P___ -1 26.6497 137.144 2 9 20
1913235N19134 1913 38 WP MM NOT_NAMED 1913-08-25 06:00:00 NR 27.0717 137.316 main 717 678 __________P___ -1 27.0717 137.316 2 9 20
1913235N19134 1913 38 WP MM NOT_NAMED 1913-08-25 09:00:00 NR 27.5000 137.500 main 678 639 __________O___ -1 27.5000 137.500 2 9 22
1913235N19134 1913 38 WP MM NOT_NAMED 1913-08-25 12:00:00 NR 27.9388 137.719 main 639 592 __________P___ -1 27.9388 137.719 2 10 24
1913235N19134 1913 38 WP MM NOT_NAMED 1913-08-25 15:00:00 NR 28.3851 137.950 main 595 557 __________P___ -1 28.3851 137.950 2 10 24
1913235N19134 1913 38 WP MM NOT_NAMED 1913-08-25 18:00:00 NR 28.8388 138.181 main 561 519 __________P___ -1 28.8388 138.181 2 10 23
1913235N19134 1913 38 WP MM NOT_NAMED 1913-08-25 21:00:00 NR 29.3000 138.400 main 519 485 __________O___ -1 29.3000 138.400 2 10 21
1913235N19134 1913 38 WP MM NOT_NAMED 1913-08-26 00:00:00 NR 29.7757 138.586 main 480 449 __________P___ -1 29.7757 138.586 2 10 18
1913235N19134 1913 38 WP MM NOT_NAMED 1913-08-26 03:00:00 NR 30.2572 138.759 main 446 419 __________P___ -1 30.2572 138.759 2 10 17
1913235N19134 1913 38 WP MM NOT_NAMED 1913-08-26 06:00:00 NR 30.7351 138.927 main 419 380 __________P___ -1 30.7351 138.927 2 10 17
1913235N19134 1913 38 WP MM NOT_NAMED 1913-08-26 09:00:00 NR 31.2000 139.100 main 380 348 __________O___ -1 31.2000 139.100 2 8 22
1913235N19134 1913 38 WP MM NOT_NAMED 1913-08-26 12:00:00 NR 31.4691 139.278 main 348 328 __________P___ -1 31.4691 139.278 2 6 29
1913235N19134 1913 38 WP MM NOT_NAMED 1913-08-26 15:00:00 NR 31.7506 139.464 main 318 288 __________P___ -1 31.7506 139.464 2 8 25
1913235N19134 1913 38 WP MM NOT_NAMED 1913-08-26 18:00:00 NR 32.1817 139.667 main 280 214 __________P___ -1 32.1817 139.667 2 12 18
1913235N19134 1913 38 WP MM NOT_NAMED 1913-08-26 21:00:00 NR 32.9000 139.900 main 214 117 __________O___ -1 32.9000 139.900 2 18 17
1913235N19134 1913 38 WP MM NOT_NAMED 1913-08-27 00:00:00 NR 33.9439 140.299 main 117 27 __________P___ -1 33.9439 140.299 2 25 16
1913235N19134 1913 38 WP MM NOT_NAMED 1913-08-27 03:00:00 NR 35.2947 140.719 main 27 0 __________P___ -1 35.2947 140.719 2 30 12
1913235N19134 1913 38 WP MM NOT_NAMED 1913-08-27 06:00:00 NR 36.9222 141.058 main 14 0 __________P___ -1 36.9222 141.058 2 35 6
1913235N19134 1913 38 WP MM NOT_NAMED 1913-08-27 09:00:00 NR 38.8000 141.200 main 0 0 __________O___ -1 38.8000 141.200 2 40 0
1913235N19134 1913 38 WP MM NOT_NAMED 1913-08-27 12:00:00 NR 40.9004 141.050 main 0 0 __________P___ -1 40.9004 141.050 2 44 354
1913235N19134 1913 38 WP MM NOT_NAMED 1913-08-27 15:00:00 NR 43.1746 140.628 main 0 0 __________P___ -1 43.1746 140.628 2 47 351
1913235N19134 1913 38 WP MM NOT_NAMED 1913-08-27 18:00:00 NR 45.5629 139.990 main 126 0 __________P___ -1 45.5629 139.990 2 49 348
1913235N19134 1913 38 WP MM NOT_NAMED 1913-08-27 21:00:00 NR 48.0000 139.200 main 0 __________O___ -1 48.0000 139.200 2 50 348

Digital Typhoon Data and Search

About IBTrACS Database

This database is a web-friendly format of International Best Track Archive for Climate Stewardship (IBTrACS), a global best track data archive curated by NOAA dating back to 1842.

Updated: 2021-12-08